Time,TemperatureF,DewpointF,PressureIn,WindDirection,WindDirectionDegrees,WindSpeedMPH,WindSpeedGustMPH,Humidity,HourlyPrecipIn,Conditions,Clouds,dailyrainin,SolarRadiationWatts/m^2,SoftwareType,DateUTC
2013-03-06 00:01:00,32.0,23.0,-100.00,North,0,0.0,0.0,69,-99.99,,,0.00,0.000000,,2013-03-06 07:01:00,
2013-03-06 00:11:00,32.0,23.0,-100.00,North,0,0.0,0.0,69,-99.99,,,0.00,0.000000,,2013-03-06 07:11:00,
2013-03-06 00:42:00,31.0,22.0,-100.00,North,0,0.0,0.0,67,-99.99,,,0.00,0.000000,,2013-03-06 07:42:00,
2013-03-06 00:52:00,31.0,22.0,-100.00,North,0,0.0,0.0,67,-99.99,,,0.00,0.000000,,2013-03-06 07:52:00,
2013-03-06 01:01:00,31.0,22.0,-100.00,North,0,0.0,0.0,67,-99.99,,,0.00,0.000000,,2013-03-06 08:01:00,
2013-03-06 01:11:00,31.0,22.0,-100.00,North,0,0.0,0.0,67,-99.99,,,0.00,0.000000,,2013-03-06 08:11:00,
2013-03-06 01:42:00,31.0,21.0,-100.00,ESE,111,0.0,2.0,67,-99.99,,,0.00,0.000000,,2013-03-06 08:42:00,
2013-03-06 01:52:00,31.0,21.0,-100.00,ESE,111,0.0,2.0,67,-99.99,,,0.00,0.000000,,2013-03-06 08:52:00,
2013-03-06 02:01:00,31.0,21.0,-100.00,ESE,111,0.0,2.0,67,-99.99,,,0.00,0.000000,,2013-03-06 09:01:00,
2013-03-06 02:12:00,31.0,21.0,-100.00,ESE,111,0.0,2.0,67,-99.99,,,0.00,0.000000,,2013-03-06 09:12:00,
2013-03-06 02:31:00,31.0,21.0,-100.00,North,0,0.0,0.0,67,-99.99,,,0.00,0.000000,,2013-03-06 09:31:00,
2013-03-06 02:42:00,31.0,21.0,-100.00,North,0,0.0,0.0,67,-99.99,,,0.00,0.000000,,2013-03-06 09:42:00,
2013-03-06 02:52:00,31.0,21.0,-100.00,North,0,0.0,0.0,67,-99.99,,,0.00,0.000000,,2013-03-06 09:52:00,
2013-03-06 03:01:00,31.0,21.0,-100.00,North,0,0.0,0.0,67,-99.99,,,0.00,0.000000,,2013-03-06 10:01:00,
2013-03-06 03:11:00,31.0,21.0,-100.00,North,0,0.0,0.0,67,-99.99,,,0.00,0.000000,,2013-03-06 10:11:00,
2013-03-06 03:42:00,28.0,24.0,-100.00,SSE,167,0.0,2.0,84,-99.99,,,0.00,0.000000,,2013-03-06 10:42:00,
2013-03-06 03:52:00,28.0,24.0,-100.00,SSE,167,0.0,2.0,84,-99.99,,,0.00,0.000000,,2013-03-06 10:52:00,
2013-03-06 04:02:00,28.0,24.0,-100.00,SSE,167,0.0,2.0,84,-99.99,,,0.00,0.000000,,2013-03-06 11:02:00,
2013-03-06 04:11:00,28.0,24.0,-100.00,SSE,167,0.0,2.0,84,-99.99,,,0.00,0.000000,,2013-03-06 11:11:00,
2013-03-06 04:42:00,29.0,22.0,-100.00,North,0,0.0,0.0,74,-99.99,,,-99.99,0.000000,,2013-03-06 11:42:00,
2013-03-06 04:52:00,29.0,22.0,-100.00,North,0,0.0,0.0,74,-99.99,,,-99.99,0.000000,,2013-03-06 11:52:00,
2013-03-06 05:01:00,29.0,22.0,-100.00,North,0,0.0,0.0,74,-99.99,,,-99.99,0.000000,,2013-03-06 12:01:00,
2013-03-06 05:11:00,29.0,22.0,-100.00,North,0,0.0,0.0,74,-99.99,,,-99.99,0.000000,,2013-03-06 12:11:00,
2013-03-06 05:42:00,29.0,23.0,-100.00,North,0,0.0,0.0,78,-99.99,,,0.00,0.000000,,2013-03-06 12:42:00,
2013-03-06 05:52:00,29.0,23.0,-100.00,North,0,0.0,0.0,78,-99.99,,,0.00,0.000000,,2013-03-06 12:52:00,
2013-03-06 06:01:00,29.0,23.0,-100.00,North,0,0.0,0.0,78,-99.99,,,0.00,0.000000,,2013-03-06 13:01:00,
2013-03-06 06:11:00,29.0,23.0,-100.00,North,0,0.0,0.0,78,-99.99,,,0.00,0.000000,,2013-03-06 13:11:00,
2013-03-06 06:42:00,30.0,25.0,-100.00,ESE,106,0.0,2.0,84,-99.99,,,0.00,0.000000,,2013-03-06 13:42:00,
2013-03-06 06:52:00,30.0,25.0,-100.00,ESE,106,0.0,2.0,84,-99.99,,,0.00,0.000000,,2013-03-06 13:52:00,
2013-03-06 07:01:00,30.0,25.0,-100.00,ESE,106,0.0,2.0,84,-99.99,,,0.00,0.000000,,2013-03-06 14:01:00,
2013-03-06 07:11:00,30.0,25.0,-100.00,ESE,106,0.0,2.0,84,-99.99,,,0.00,0.000000,,2013-03-06 14:11:00,
2013-03-06 07:42:00,31.0,26.0,-100.00,ENE,64,0.0,3.0,82,-99.99,,,0.00,0.810000,,2013-03-06 14:42:00,
2013-03-06 07:52:00,31.0,26.0,-100.00,ENE,64,0.0,3.0,82,-99.99,,,0.00,0.810000,,2013-03-06 14:52:00,
2013-03-06 08:01:00,31.0,26.0,-100.00,ENE,64,0.0,3.0,82,-99.99,,,0.00,0.810000,,2013-03-06 15:01:00,
2013-03-06 08:11:00,31.0,26.0,-100.00,ENE,64,0.0,3.0,82,-99.99,,,0.00,0.810000,,2013-03-06 15:11:00,
2013-03-06 08:42:00,31.0,27.0,-100.00,SW,232,1.0,3.0,85,-99.99,,,0.00,19.870001,,2013-03-06 15:42:00,
2013-03-06 08:52:00,31.0,27.0,-100.00,SW,232,1.0,3.0,85,-99.99,,,0.00,19.870001,,2013-03-06 15:52:00,
2013-03-06 09:01:00,31.0,27.0,-100.00,SW,232,1.0,3.0,85,-99.99,,,0.00,19.870001,,2013-03-06 16:01:00,
2013-03-06 09:11:00,31.0,27.0,-100.00,SW,232,1.0,3.0,85,-99.99,,,0.00,19.870001,,2013-03-06 16:11:00,
2013-03-06 09:42:00,34.0,25.0,-100.00,East,92,2.0,4.0,71,-99.99,,,0.00,221.860001,,2013-03-06 16:42:00,
2013-03-06 09:52:00,34.0,25.0,-100.00,East,92,2.0,4.0,71,-99.99,,,0.00,221.860001,,2013-03-06 16:52:00,
2013-03-06 10:01:00,34.0,25.0,-100.00,East,92,2.0,4.0,71,-99.99,,,0.00,221.860001,,2013-03-06 17:01:00,
2013-03-06 10:11:00,34.0,25.0,-100.00,East,92,2.0,4.0,71,-99.99,,,0.00,221.860001,,2013-03-06 17:11:00,
2013-03-06 10:41:00,36.0,25.0,-100.00,NNW,335,3.0,6.0,63,-99.99,,,0.00,217.100006,,2013-03-06 17:41:00,
2013-03-06 10:52:00,36.0,25.0,-100.00,NNW,335,3.0,6.0,63,-99.99,,,0.00,217.100006,,2013-03-06 17:52:00,
2013-03-06 11:01:00,36.0,25.0,-100.00,NNW,335,3.0,6.0,63,-99.99,,,0.00,217.100006,,2013-03-06 18:01:00,
2013-03-06 11:42:00,39.0,29.0,-100.00,NNW,336,4.0,7.0,67,-99.99,,,0.00,458.369995,,2013-03-06 18:42:00,
2013-03-06 11:52:00,39.0,29.0,-100.00,NNW,336,4.0,7.0,67,-99.99,,,0.00,458.369995,,2013-03-06 18:52:00,
2013-03-06 12:02:00,39.0,29.0,-100.00,NNW,336,4.0,7.0,67,-99.99,,,0.00,458.369995,,2013-03-06 19:02:00,
2013-03-06 12:11:00,39.0,29.0,-100.00,NNW,336,4.0,7.0,67,-99.99,,,0.00,458.369995,,2013-03-06 19:11:00,
2013-03-06 12:43:00,42.0,30.0,-100.00,North,350,3.0,6.0,61,-99.99,,,0.00,336.459991,,2013-03-06 19:43:00,
2013-03-06 12:53:00,42.0,30.0,-100.00,North,350,3.0,6.0,61,-99.99,,,0.00,336.459991,,2013-03-06 19:53:00,
2013-03-06 13:01:00,42.0,30.0,-100.00,North,350,3.0,6.0,61,-99.99,,,0.00,336.459991,,2013-03-06 20:01:00,
2013-03-06 13:11:00,42.0,30.0,-100.00,North,350,3.0,6.0,61,-99.99,,,0.00,336.459991,,2013-03-06 20:11:00,
2013-03-06 13:42:00,44.0,30.0,-100.00,North,6,2.0,6.0,57,-99.99,,,0.00,400.149994,,2013-03-06 20:42:00,
2013-03-06 13:52:00,44.0,30.0,-100.00,North,6,2.0,6.0,57,-99.99,,,0.00,400.149994,,2013-03-06 20:52:00,
2013-03-06 14:02:00,44.0,30.0,-100.00,North,6,2.0,6.0,57,-99.99,,,0.00,400.149994,,2013-03-06 21:02:00,
2013-03-06 14:11:00,44.0,30.0,-100.00,North,6,2.0,6.0,57,-99.99,,,0.00,400.149994,,2013-03-06 21:11:00,
2013-03-06 14:42:00,43.0,31.0,-100.00,West,270,2.0,5.0,61,-99.99,,,0.00,87.510002,,2013-03-06 21:42:00,
2013-03-06 14:52:00,43.0,31.0,-100.00,West,270,2.0,5.0,61,-99.99,,,0.00,87.510002,,2013-03-06 21:52:00,
2013-03-06 15:01:00,43.0,31.0,-100.00,West,270,2.0,5.0,61,-99.99,,,0.00,87.510002,,2013-03-06 22:01:00,
2013-03-06 15:11:00,43.0,31.0,-100.00,West,270,2.0,5.0,61,-99.99,,,0.00,87.510002,,2013-03-06 22:11:00,
2013-03-06 15:41:00,41.0,35.0,-100.00,SE,124,5.0,13.0,77,-99.99,,,0.00,96.110001,,2013-03-06 22:41:00,
2013-03-06 15:52:00,41.0,35.0,-100.00,SE,124,5.0,13.0,77,-99.99,,,0.00,96.110001,,2013-03-06 22:52:00,
2013-03-06 16:01:00,41.0,35.0,-100.00,SE,124,5.0,13.0,77,-99.99,,,0.00,96.110001,,2013-03-06 23:01:00,
2013-03-06 16:11:00,41.0,35.0,-100.00,SE,124,5.0,13.0,77,-99.99,,,0.00,96.110001,,2013-03-06 23:11:00,
2013-03-06 16:42:00,46.0,34.0,-100.00,WNW,299,3.0,8.0,63,-99.99,,,0.00,436.519989,,2013-03-06 23:42:00,
2013-03-06 16:52:00,46.0,34.0,-100.00,WNW,299,3.0,8.0,63,-99.99,,,0.00,436.519989,,2013-03-06 23:52:00,
2013-03-06 17:01:00,46.0,34.0,-100.00,WNW,299,3.0,8.0,63,-99.99,,,0.00,436.519989,,2013-03-07 00:01:00,
2013-03-06 17:11:00,46.0,34.0,-100.00,WNW,299,3.0,8.0,63,-99.99,,,0.00,436.519989,,2013-03-07 00:11:00,
2013-03-06 17:32:00,41.0,37.0,-100.00,SSW,211,3.0,14.0,85,-99.99,,,0.00,18.360001,,2013-03-07 00:32:00,
2013-03-06 17:41:00,41.0,37.0,-100.00,SSW,211,3.0,14.0,85,-99.99,,,0.00,18.360001,,2013-03-07 00:41:00,
2013-03-06 17:52:00,41.0,37.0,-100.00,SSW,211,3.0,14.0,85,-99.99,,,0.00,18.360001,,2013-03-07 00:52:00,
2013-03-06 18:01:00,41.0,37.0,-100.00,SSW,211,3.0,14.0,85,-99.99,,,0.00,18.360001,,2013-03-07 01:01:00,
2013-03-06 18:11:00,41.0,37.0,-100.00,SSW,211,3.0,14.0,85,-99.99,,,0.00,18.360001,,2013-03-07 01:11:00,
2013-03-06 18:41:00,39.0,35.0,-100.00,SSE,165,4.0,9.0,87,-99.99,,,0.00,10.460000,,2013-03-07 01:41:00,
2013-03-06 18:52:00,39.0,35.0,-100.00,SSE,165,4.0,9.0,87,-99.99,,,0.00,10.460000,,2013-03-07 01:52:00,
2013-03-06 19:01:00,39.0,35.0,-100.00,SSE,165,4.0,9.0,87,-99.99,,,0.00,10.460000,,2013-03-07 02:01:00,
2013-03-06 19:11:00,39.0,35.0,-100.00,SSE,165,4.0,9.0,87,-99.99,,,0.00,10.460000,,2013-03-07 02:11:00,
2013-03-06 19:31:00,37.0,36.0,-100.00,SSE,150,8.0,13.0,96,-99.99,,,0.00,0.000000,,2013-03-07 02:31:00,
2013-03-06 19:41:00,37.0,36.0,-100.00,SSE,150,8.0,13.0,96,-99.99,,,0.00,0.000000,,2013-03-07 02:41:00,
2013-03-06 19:52:00,37.0,36.0,-100.00,SSE,150,8.0,13.0,96,-99.99,,,0.00,0.000000,,2013-03-07 02:52:00,
2013-03-06 20:01:00,37.0,36.0,-100.00,SSE,150,8.0,13.0,96,-99.99,,,0.00,0.000000,,2013-03-07 03:01:00,
2013-03-06 20:11:00,37.0,36.0,-100.00,SSE,150,8.0,13.0,96,-99.99,,,0.00,0.000000,,2013-03-07 03:11:00,
2013-03-06 20:41:00,37.0,35.0,-100.00,South,184,1.0,4.0,91,-99.99,,,0.00,0.000000,,2013-03-07 03:41:00,
2013-03-06 20:52:00,37.0,35.0,-100.00,South,184,1.0,4.0,91,-99.99,,,0.00,0.000000,,2013-03-07 03:52:00,
2013-03-06 21:01:00,37.0,35.0,-100.00,South,184,1.0,4.0,91,-99.99,,,0.00,0.000000,,2013-03-07 04:01:00,
2013-03-06 21:11:00,37.0,35.0,-100.00,South,184,1.0,4.0,91,-99.99,,,0.00,0.000000,,2013-03-07 04:11:00,
2013-03-06 21:42:00,36.0,34.0,-100.00,SSE,151,3.0,9.0,95,-99.99,,,0.00,0.000000,,2013-03-07 04:42:00,
2013-03-06 21:52:00,36.0,34.0,-100.00,SSE,151,3.0,9.0,95,-99.99,,,0.00,0.000000,,2013-03-07 04:52:00,
2013-03-06 22:01:00,36.0,34.0,-100.00,SSE,151,3.0,9.0,95,-99.99,,,0.00,0.000000,,2013-03-07 05:01:00,
2013-03-06 22:12:00,36.0,34.0,-100.00,SSE,151,3.0,9.0,95,-99.99,,,0.00,0.000000,,2013-03-07 05:12:00,
2013-03-06 22:32:00,34.0,33.0,-100.00,SSE,157,4.0,7.0,95,-99.99,,,0.00,0.000000,,2013-03-07 05:32:00,
2013-03-06 22:42:00,34.0,33.0,-100.00,SSE,157,4.0,7.0,95,-99.99,,,0.00,0.000000,,2013-03-07 05:42:00,
2013-03-06 22:52:00,34.0,33.0,-100.00,SSE,157,4.0,7.0,95,-99.99,,,0.00,0.000000,,2013-03-07 05:52:00,
2013-03-06 23:01:00,34.0,33.0,-100.00,SSE,157,4.0,7.0,95,-99.99,,,0.00,0.000000,,2013-03-07 06:01:00,
2013-03-06 23:11:00,34.0,33.0,-100.00,SSE,157,4.0,7.0,95,-99.99,,,0.00,0.000000,,2013-03-07 06:11:00,
2013-03-06 23:31:00,34.0,30.0,-100.00,SSW,193,1.0,4.0,86,-99.99,,,0.00,0.000000,,2013-03-07 06:31:00,
2013-03-06 23:41:00,34.0,30.0,-100.00,SSW,193,1.0,4.0,86,-99.99,,,0.00,0.000000,,2013-03-07 06:41:00,
2013-03-06 23:52:00,34.0,30.0,-100.00,SSW,193,1.0,4.0,86,-99.99,,,0.00,0.000000,,2013-03-07 06:52:00,